Time;durP1;ratioP1;P1;durP2;ratioP2;P2;SDS_P1;SDS_P2;PMS_P1;PMS_P2;Temp;Humidity;BMP_temperature;BMP_pressure;BME280_temperature;BME280_humidity;BME280_pressure;Samples;Min_cycle;Max_cycle;Signal;HPM_P1;HPM_P2
2021/10/30 00:02:10;;;;;;;;;;;;;;;;;;5115339;28;19924;-77
2021/10/30 00:04:37;;;;;;;;;;;;;;;;;;5115004;28;19935;-77
2021/10/30 00:07:04;;;;;;;;;;;;;;;;;;5114835;28;20212;-77
2021/10/30 00:09:31;;;;;;;;;;;;;;;;;;5115282;28;19932;-77
2021/10/30 00:11:58;;;;;;;;;;;;;;;;;;5114811;28;20341;-80
2021/10/30 00:14:26;;;;;;;;;;;;;;;;;;5114662;28;19924;-78
2021/10/30 00:16:53;;;;;;;;;;;;;;;;;;5115079;28;20248;-80
2021/10/30 00:19:21;;;;;;;;;;;;;;;;;;5114841;28;19928;-78
2021/10/30 00:21:52;;;;;;;;;;;;;;;;;;5114786;28;19923;-78
2021/10/30 00:24:19;;;;;;;;;;;;;;;;;;5114915;28;20245;-79
2021/10/30 00:26:47;;;;;;;;;;;;;;;;;;5114609;28;20121;-79
2021/10/30 00:29:14;;;;;;;;;;;;;;;;;;5114973;28;20100;-80
2021/10/30 00:31:41;;;;;;;;;;;;;;;;;;5114512;28;19931;-81
2021/10/30 00:34:08;;;;;;;;;;;;;;;;;;5114464;28;19924;-80
2021/10/30 00:36:37;;;;;;;;;;;;;;;;;;5114008;28;19938;-77
2021/10/30 00:39:04;;;;;;;;;;;;;;;;;;5114272;28;19924;-79
2021/10/30 00:41:31;;;;;;;;;;;;;;;;;;5114597;28;20486;-78
2021/10/30 00:44:06;;;;;;;;;;;;;;;;;;5113805;28;19924;-77
2021/10/30 00:46:33;;;;;;;;;;;;;;;;;;5114253;28;19935;-79
2021/10/30 00:49:00;;;;;;;;;;;;;;;;;;5113704;28;19923;-80
2021/10/30 00:51:37;;;;;;;;;;;;;;;;;;5114438;28;19935;-79
2021/10/30 00:54:07;;;;;;;;;;;;;;;;;;5114175;28;19923;-79
2021/10/30 00:56:34;;;;;;;;;;;;;;;;;;5113873;28;19935;-78
2021/10/30 00:59:04;;;;;;;;;;;;;;;;;;5114175;28;19931;-79
2021/10/30 01:01:31;;;;;;;;;;;;;;;;;;5113678;28;19927;-77
2021/10/30 01:03:58;;;;;;;;;;;;;;;;;;5113893;28;19924;-81
2021/10/30 01:06:25;;;;;;;;;;;;;;;;;;5113784;28;20189;-81
2021/10/30 01:08:54;;;;;;;;;;;;;;;;;;5113662;28;19931;-79
2021/10/30 01:11:22;;;;;;;;;;;;;;;;;;5113954;28;19928;-77
2021/10/30 01:13:49;;;;;;;;;;;;;;;;;;5113167;28;19923;-77
2021/10/30 01:16:18;;;;;;;;;;;;;;;;;;5113798;28;19955;-78
2021/10/30 01:18:45;;;;;;;;;;;;;;;;;;5113798;28;19938;-77
2021/10/30 01:21:14;;;;;;;;;;;;;;;;;;5113918;28;19927;-81
2021/10/30 01:23:41;;;;;;;;;;;;;;;;;;5113575;28;19939;-80
2021/10/30 01:26:08;;;;;;;;;;;;;;;;;;5113414;28;20348;-81
2021/10/30 01:28:37;;;;;;;;;;;;;;;;;;5113389;28;19931;-77
2021/10/30 01:31:04;;;;;;;;;;;;;;;;;;5113951;28;19923;-79
2021/10/30 01:33:31;;;;;;;;;;;;;;;;;;5113497;28;20332;-80
2021/10/30 01:36:05;;;;;;;;;;;;;;;;;;5113286;28;20000;-80
2021/10/30 01:38:34;;;;;;;;;;;;;;;;;;5112803;28;19931;-80
2021/10/30 01:41:01;;;;;;;;;;;;;;;;;;5113220;28;19928;-80
2021/10/30 01:43:28;;;;;;;;;;;;;;;;;;5113256;28;19935;-77
2021/10/30 01:45:56;;;;;;;;;;;;;;;;;;5111827;28;19928;-78
2021/10/30 01:48:28;;;;;;;;;;;;;;;;;;5112853;28;19923;-77
2021/10/30 01:50:55;;;;;;;;;;;;;;;;;;5113079;28;19923;-77
2021/10/30 01:53:22;;;;;;;;;;;;;;;;;;5113086;28;19947;-81
2021/10/30 01:55:51;;;;;;;;;;;;;;;;;;5112511;28;20380;-81
2021/10/30 01:58:18;;;;;;;;;;;;;;;;;;5112646;28;19924;-79
2021/10/30 02:00:46;;;;;;;;;;;;;;;;;;5112797;28;19984;-78
2021/10/30 02:03:13;;;;;;;;;;;;;;;;;;5112889;28;20190;-77
2021/10/30 02:05:40;;;;;;;;;;;;;;;;;;5112595;28;19947;-77
2021/10/30 02:08:07;;;;;;;;;;;;;;;;;;5112431;28;19928;-77
2021/10/30 02:10:34;;;;;;;;;;;;;;;;;;5112566;28;20014;-79
2021/10/30 02:13:03;;;;;;;;;;;;;;;;;;5112426;28;19928;-79
2021/10/30 02:15:30;;;;;;;;;;;;;;;;;;5112478;28;19931;-79
2021/10/30 02:17:57;;;;;;;;;;;;;;;;;;5112387;28;19924;-79
2021/10/30 02:20:24;;;;;;;;;;;;;;;;;;5112530;28;19923;-79
2021/10/30 02:22:53;;;;;;;;;;;;;;;;;;5112484;28;19928;-80
2021/10/30 02:25:21;;;;;;;;;;;;;;;;;;5112528;28;19928;-78
2021/10/30 02:27:48;;;;;;;;;;;;;;;;;;5111958;28;19988;-79
2021/10/30 02:30:17;;;;;;;;;;;;;;;;;;5112332;28;20280;-79
2021/10/30 02:32:45;;;;;;;;;;;;;;;;;;5112122;28;19935;-79
2021/10/30 02:35:12;;;;;;;;;;;;;;;;;;5112280;28;19928;-79
2021/10/30 02:37:40;;;;;;;;;;;;;;;;;;5111693;28;19985;-80
2021/10/30 02:40:07;;;;;;;;;;;;;;;;;;5111782;28;20392;-79
2021/10/30 02:42:35;;;;;;;;;;;;;;;;;;5111993;28;19924;-81
2021/10/30 02:45:03;;;;;;;;;;;;;;;;;;5111864;28;19958;-79
2021/10/30 02:47:32;;;;;;;;;;;;;;;;;;5112021;28;19923;-79
2021/10/30 02:49:59;;;;;;;;;;;;;;;;;;5111635;28;20201;-77
2021/10/30 02:52:26;;;;;;;;;;;;;;;;;;5111972;28;19927;-79
2021/10/30 02:54:54;;;;;;;;;;;;;;;;;;5111845;28;19924;-80
2021/10/30 02:57:21;;;;;;;;;;;;;;;;;;5111619;28;19938;-80
2021/10/30 02:59:49;;;;;;;;;;;;;;;;;;5111819;28;19997;-80
2021/10/30 03:02:16;;;;;;;;;;;;;;;;;;5111890;28;19934;-77
2021/10/30 03:04:44;;;;;;;;;;;;;;;;;;5111352;28;19935;-77
2021/10/30 03:07:11;;;;;;;;;;;;;;;;;;5111528;28;19938;-77
2021/10/30 03:09:38;;;;;;;;;;;;;;;;;;5112021;28;19928;-81
2021/10/30 03:12:06;;;;;;;;;;;;;;;;;;5111597;28;19935;-80
2021/10/30 03:14:33;;;;;;;;;;;;;;;;;;5111596;28;19935;-80
2021/10/30 03:17:00;;;;;;;;;;;;;;;;;;5111618;28;19936;-76
2021/10/30 03:19:27;;;;;;;;;;;;;;;;;;5111424;28;19924;-79
2021/10/30 03:21:55;;;;;;;;;;;;;;;;;;5111155;28;19938;-79
2021/10/30 03:24:22;;;;;;;;;;;;;;;;;;5111522;28;19924;-79
2021/10/30 03:26:49;;;;;;;;;;;;;;;;;;5111727;28;19928;-79
2021/10/30 03:29:16;;;;;;;;;;;;;;;;;;5111589;28;19939;-79
2021/10/30 03:31:43;;;;;;;;;;;;;;;;;;5111338;28;20341;-79
2021/10/30 03:34:11;;;;;;;;;;;;;;;;;;5111460;28;19928;-79
2021/10/30 03:36:39;;;;;;;;;;;;;;;;;;5110989;28;19931;-77
2021/10/30 03:39:07;;;;;;;;;;;;;;;;;;5111731;28;20523;-78
2021/10/30 03:41:34;;;;;;;;;;;;;;;;;;5111541;28;19924;-77
2021/10/30 03:44:01;;;;;;;;;;;;;;;;;;5111512;28;19931;-78
2021/10/30 03:46:28;;;;;;;;;;;;;;;;;;5111212;28;19991;-78
2021/10/30 03:48:56;;;;;;;;;;;;;;;;;;5110963;28;19924;-77
2021/10/30 03:51:23;;;;;;;;;;;;;;;;;;5111287;28;19969;-78
2021/10/30 03:53:53;;;;;;;;;;;;;;;;;;5111426;28;19932;-78
2021/10/30 03:56:21;;;;;;;;;;;;;;;;;;5111208;28;19928;-79
2021/10/30 03:58:48;;;;;;;;;;;;;;;;;;5111284;28;19935;-77
2021/10/30 04:01:15;;;;;;;;;;;;;;;;;;5111469;28;19968;-79
2021/10/30 04:03:44;;;;;;;;;;;;;;;;;;5111118;28;20356;-78
2021/10/30 04:06:11;;;;;;;;;;;;;;;;;;5111109;28;19927;-78
2021/10/30 04:08:38;;;;;;;;;;;;;;;;;;5111147;28;19923;-79
2021/10/30 04:11:05;;;;;;;;;;;;;;;;;;5115029;28;19985;-77
2021/10/30 04:13:33;;;;;;;;;;;;;;;;;;5114689;28;19935;-78
2021/10/30 04:16:00;;;;;;;;;;;;;;;;;;5114540;28;19923;-78
2021/10/30 04:18:27;;;;;;;;;;;;;;;;;;5114667;28;19924;-78
2021/10/30 04:20:55;;;;;;;;;;;;;;;;;;5115122;28;19923;-80
2021/10/30 04:23:22;;;;;;;;;;;;;;;;;;5114768;28;19927;-77
2021/10/30 04:25:49;;;;;;;;;;;;;;;;;;5114707;28;19924;-77
2021/10/30 04:28:16;;;;;;;;;;;;;;;;;;5114507;28;19927;-81
2021/10/30 04:30:44;;;;;;;;;;;;;;;;;;5114626;28;19931;-78
2021/10/30 04:33:15;;;;;;;;;;;;;;;;;;5114706;28;19992;-81
2021/10/30 04:35:43;;;;;;;;;;;;;;;;;;5114303;28;20417;-78
2021/10/30 04:38:10;;;;;;;;;;;;;;;;;;5114341;28;19923;-79
2021/10/30 04:40:37;;;;;;;;;;;;;;;;;;5114325;28;20066;-78
2021/10/30 04:43:05;;;;;;;;;;;;;;;;;;5114188;28;19928;-80
2021/10/30 04:45:32;;;;;;;;;;;;;;;;;;5114933;28;19952;-80
2021/10/30 04:48:00;;;;;;;;;;;;;;;;;;5114300;28;20241;-80
2021/10/30 04:50:27;;;;;;;;;;;;;;;;;;5114468;28;19935;-79
2021/10/30 04:52:55;;;;;;;;;;;;;;;;;;5114553;28;19927;-79
2021/10/30 04:55:22;;;;;;;;;;;;;;;;;;5114341;28;19927;-79
2021/10/30 04:57:49;;;;;;;;;;;;;;;;;;5114560;28;19924;-80
2021/10/30 05:00:16;;;;;;;;;;;;;;;;;;5114092;28;19927;-77
2021/10/30 05:02:43;;;;;;;;;;;;;;;;;;5113971;28;19923;-78
2021/10/30 05:05:11;;;;;;;;;;;;;;;;;;5113955;28;19927;-81
2021/10/30 05:07:39;;;;;;;;;;;;;;;;;;5113750;28;19934;-80
2021/10/30 05:10:07;;;;;;;;;;;;;;;;;;5113714;28;19927;-81
2021/10/30 05:12:34;;;;;;;;;;;;;;;;;;5113250;28;19927;-80
2021/10/30 05:15:01;;;;;;;;;;;;;;;;;;5113450;28;21070;-77
2021/10/30 05:17:28;;;;;;;;;;;;;;;;;;5113784;28;19931;-78
2021/10/30 05:19:55;;;;;;;;;;;;;;;;;;5113312;28;20367;-79
2021/10/30 05:22:24;;;;;;;;;;;;;;;;;;5113944;28;19923;-80
2021/10/30 05:24:51;;;;;;;;;;;;;;;;;;5113188;28;20309;-81
2021/10/30 05:27:18;;;;;;;;;;;;;;;;;;5113557;28;20268;-80
2021/10/30 05:29:45;;;;;;;;;;;;;;;;;;5113374;28;19927;-77
2021/10/30 05:32:12;;;;;;;;;;;;;;;;;;5113612;28;19935;-78
2021/10/30 05:34:39;;;;;;;;;;;;;;;;;;5112965;28;19934;-81
2021/10/30 05:37:07;;;;;;;;;;;;;;;;;;5113448;28;19971;-77
2021/10/30 05:39:36;;;;;;;;;;;;;;;;;;5113253;28;19935;-78
2021/10/30 05:42:04;;;;;;;;;;;;;;;;;;5113181;28;19924;-77
2021/10/30 05:44:31;;;;;;;;;;;;;;;;;;5113201;28;19951;-80
2021/10/30 05:46:58;;;;;;;;;;;;;;;;;;5113054;28;19947;-79
2021/10/30 05:49:26;;;;;;;;;;;;;;;;;;5113100;28;19924;-77
2021/10/30 05:51:53;;;;;;;;;;;;;;;;;;5112962;28;19927;-78
2021/10/30 05:54:20;;;;;;;;;;;;;;;;;;5112862;28;19923;-80
2021/10/30 05:56:49;;;;;;;;;;;;;;;;;;5112856;28;19924;-79
2021/10/30 05:59:16;;;;;;;;;;;;;;;;;;5113017;28;19928;-78
2021/10/30 06:01:43;;;;;;;;;;;;;;;;;;5112375;28;19923;-77
2021/10/30 06:04:10;;;;;;;;;;;;;;;;;;5113128;28;19924;-77
2021/10/30 06:06:37;;;;;;;;;;;;;;;;;;5112106;28;19946;-78
2021/10/30 06:09:04;;;;;;;;;;;;;;;;;;5112779;28;19939;-79
2021/10/30 06:11:32;;;;;;;;;;;;;;;;;;5112734;28;20310;-78
2021/10/30 06:14:00;;;;;;;;;;;;;;;;;;5112587;28;20308;-77
2021/10/30 06:16:27;;;;;;;;;;;;;;;;;;5112588;28;19923;-80
2021/10/30 06:18:54;;;;;;;;;;;;;;;;;;5112355;28;19927;-77
2021/10/30 06:21:21;;;;;;;;;;;;;;;;;;5113019;28;19928;-77
2021/10/30 06:23:49;;;;;;;;;;;;;;;;;;5111864;28;19939;-79
2021/10/30 06:26:17;;;;;;;;;;;;;;;;;;5112362;28;20416;-77
2021/10/30 06:28:45;;;;;;;;;;;;;;;;;;5112299;28;19939;-78
2021/10/30 06:31:14;;;;;;;;;;;;;;;;;;5112500;28;19924;-79
2021/10/30 06:33:41;;;;;;;;;;;;;;;;;;5112340;28;19924;-78
2021/10/30 06:36:09;;;;;;;;;;;;;;;;;;5111999;28;20298;-78
2021/10/30 06:38:36;;;;;;;;;;;;;;;;;;5111601;28;19924;-77
2021/10/30 06:41:06;;;;;;;;;;;;;;;;;;5112150;28;19924;-78
2021/10/30 06:43:33;;;;;;;;;;;;;;;;;;5112078;28;19924;-77
2021/10/30 06:46:00;;;;;;;;;;;;;;;;;;5111732;28;19923;-78
2021/10/30 06:48:29;;;;;;;;;;;;;;;;;;5111487;28;19935;-77
2021/10/30 06:50:56;;;;;;;;;;;;;;;;;;5111983;28;19938;-79
2021/10/30 06:53:23;;;;;;;;;;;;;;;;;;5112110;28;19943;-77
2021/10/30 06:55:51;;;;;;;;;;;;;;;;;;5111504;28;19927;-78
2021/10/30 06:58:18;;;;;;;;;;;;;;;;;;5111991;28;19924;-81
2021/10/30 07:00:45;;;;;;;;;;;;;;;;;;5111898;28;19928;-77
2021/10/30 07:03:12;;;;;;;;;;;;;;;;;;5111903;28;20249;-80
2021/10/30 07:05:41;;;;;;;;;;;;;;;;;;5111654;28;20268;-78
2021/10/30 07:08:08;;;;;;;;;;;;;;;;;;5111703;28;20018;-78
2021/10/30 07:10:35;;;;;;;;;;;;;;;;;;5111756;28;20272;-77
2021/10/30 07:13:02;;;;;;;;;;;;;;;;;;5111642;28;19938;-79
2021/10/30 07:15:29;;;;;;;;;;;;;;;;;;5111575;28;19923;-79
2021/10/30 07:17:56;;;;;;;;;;;;;;;;;;5112116;28;20035;-77
2021/10/30 07:20:24;;;;;;;;;;;;;;;;;;5112549;28;19924;-80
2021/10/30 07:22:52;;;;;;;;;;;;;;;;;;5111689;28;19950;-78
2021/10/30 07:25:21;;;;;;;;;;;;;;;;;;5111903;28;19935;-78
2021/10/30 07:27:49;;;;;;;;;;;;;;;;;;5111622;28;19927;-80
2021/10/30 07:30:17;;;;;;;;;;;;;;;;;;5111963;28;19927;-81
2021/10/30 07:32:44;;;;;;;;;;;;;;;;;;5111630;28;19927;-78
2021/10/30 07:35:11;;;;;;;;;;;;;;;;;;5111970;28;20364;-78
2021/10/30 07:37:38;;;;;;;;;;;;;;;;;;5111511;28;19924;-79
2021/10/30 07:40:08;;;;;;;;;;;;;;;;;;5112722;28;19959;-79
2021/10/30 07:42:35;;;;;;;;;;;;;;;;;;5116074;28;19943;-81
2021/10/30 07:45:03;;;;;;;;;;;;;;;;;;5117384;28;20376;-79
2021/10/30 07:47:30;;;;;;;;;;;;;;;;;;5115507;28;19931;-81
2021/10/30 07:49:58;;;;;;;;;;;;;;;;;;5115224;28;19924;-80
2021/10/30 07:52:25;;;;;;;;;;;;;;;;;;5115487;28;19939;-80
2021/10/30 07:54:52;;;;;;;;;;;;;;;;;;5111925;28;20306;-81
2021/10/30 07:57:30;;;;;;;;;;;;;;;;;;5103456;27;19928;-78
2021/10/30 07:59:57;;;;;;;;;;;;;;;;;;5106132;28;19928;-80
2021/10/30 08:02:24;;;;;;;;;;;;;;;;;;5111553;28;19932;-81
2021/10/30 08:04:51;;;;;;;;;;;;;;;;;;5094654;28;19924;-80
2021/10/30 08:07:18;;;;;;;;;;;;;;;;;;5094175;28;19924;-79
2021/10/30 08:09:45;;;;;;;;;;;;;;;;;;5094456;28;19928;-78
2021/10/30 08:12:13;;;;;;;;;;;;;;;;;;5099678;28;19927;-80
2021/10/30 08:14:42;;;;;;;;;;;;;;;;;;5105119;28;19931;-80
2021/10/30 08:17:10;;;;;;;;;;;;;;;;;;5094099;28;19924;-79
2021/10/30 08:19:37;;;;;;;;;;;;;;;;;;5094527;28;20265;-80
2021/10/30 08:22:05;;;;;;;;;;;;;;;;;;5093562;28;20265;-79
2021/10/30 08:24:32;;;;;;;;;;;;;;;;;;5093434;28;19939;-78
2021/10/30 08:26:59;;;;;;;;;;;;;;;;;;5093108;28;20380;-80
2021/10/30 08:29:27;;;;;;;;;;;;;;;;;;5093571;28;19928;-79
2021/10/30 08:31:55;;;;;;;;;;;;;;;;;;5093970;28;20147;-83
2021/10/30 08:34:22;;;;;;;;;;;;;;;;;;5093178;28;19928;-78
2021/10/30 08:36:49;;;;;;;;;;;;;;;;;;5093100;28;19927;-79
2021/10/30 08:39:17;;;;;;;;;;;;;;;;;;5094074;28;20321;-79
2021/10/30 08:41:44;;;;;;;;;;;;;;;;;;5093465;28;19934;-82
2021/10/30 08:44:11;;;;;;;;;;;;;;;;;;5093797;28;19928;-78
2021/10/30 08:46:38;;;;;;;;;;;;;;;;;;5093465;28;19935;-78
2021/10/30 08:49:10;;;;;;;;;;;;;;;;;;5093628;28;19924;-78
2021/10/30 08:51:38;;;;;;;;;;;;;;;;;;5093450;28;19993;-78
2021/10/30 08:54:05;;;;;;;;;;;;;;;;;;5092855;28;19928;-78
2021/10/30 08:56:33;;;;;;;;;;;;;;;;;;5090910;28;19940;-77
2021/10/30 08:59:00;;;;;;;;;;;;;;;;;;5097437;28;19924;-78
2021/10/30 09:01:46;;;;;;;;;;;;;;;;;;5101398;28;19927;-79
2021/10/30 09:04:16;;;;;;;;;;;;;;;;;;5113573;28;19923;-82
2021/10/30 09:06:44;;;;;;;;;;;;;;;;;;5095464;28;19947;-79
2021/10/30 09:09:16;;;;;;;;;;;;;;;;;;5092935;28;20301;-80
2021/10/30 09:11:53;;;;;;;;;;;;;;;;;;5094548;28;19924;-82
2021/10/30 09:14:22;;;;;;;;;;;;;;;;;;5113620;28;19927;-79
2021/10/30 09:17:06;;;;;;;;;;;;;;;;;;5113469;28;20349;-78
2021/10/30 09:19:35;;;;;;;;;;;;;;;;;;5113014;28;19935;-79
2021/10/30 09:22:03;;;;;;;;;;;;;;;;;;5113781;28;19928;-79
2021/10/30 09:24:30;;;;;;;;;;;;;;;;;;5113210;28;19935;-79
2021/10/30 09:26:58;;;;;;;;;;;;;;;;;;5111741;28;19938;-78
2021/10/30 09:29:25;;;;;;;;;;;;;;;;;;5113148;28;20360;-80
2021/10/30 09:31:52;;;;;;;;;;;;;;;;;;5112926;28;19927;-80
2021/10/30 09:34:27;;;;;;;;;;;;;;;;;;5112679;28;19927;-78
2021/10/30 09:36:57;;;;;;;;;;;;;;;;;;5113229;28;20419;-79
2021/10/30 09:39:24;;;;;;;;;;;;;;;;;;5113280;28;19934;-79
2021/10/30 09:41:52;;;;;;;;;;;;;;;;;;5112385;28;19923;-79
2021/10/30 09:44:23;;;;;;;;;;;;;;;;;;5112752;28;19927;-79
2021/10/30 09:46:52;;;;;;;;;;;;;;;;;;5113007;28;19988;-78
2021/10/30 09:49:20;;;;;;;;;;;;;;;;;;5112301;28;19928;-77
2021/10/30 09:51:49;;;;;;;;;;;;;;;;;;5098276;28;19954;-79
2021/10/30 09:54:30;;;;;;;;;;;;;;;;;;5092469;28;19924;-78
2021/10/30 09:56:57;;;;;;;;;;;;;;;;;;5093253;28;20273;-80
2021/10/30 09:59:25;;;;;;;;;;;;;;;;;;5092622;28;19924;-79
2021/10/30 10:01:53;;;;;;;;;;;;;;;;;;5091627;28;19928;-79
2021/10/30 10:04:21;;;;;;;;;;;;;;;;;;5092161;28;19924;-79
2021/10/30 10:06:48;;;;;;;;;;;;;;;;;;5091061;28;19924;-81
2021/10/30 10:09:16;;;;;;;;;;;;;;;;;;5092106;28;20280;-79
2021/10/30 10:11:45;;;;;;;;;;;;;;;;;;5093779;28;20388;-78
2021/10/30 10:14:13;;;;;;;;;;;;;;;;;;5112225;28;19932;-79
2021/10/30 10:16:40;;;;;;;;;;;;;;;;;;5112258;28;19977;-78
2021/10/30 10:19:07;;;;;;;;;;;;;;;;;;5112253;28;20014;-78
2021/10/30 10:21:35;;;;;;;;;;;;;;;;;;5112014;28;19923;-78
2021/10/30 10:24:02;;;;;;;;;;;;;;;;;;5112243;28;20151;-78
2021/10/30 10:26:30;;;;;;;;;;;;;;;;;;5111919;28;20360;-79
2021/10/30 10:29:03;;;;;;;;;;;;;;;;;;5112044;28;19928;-79
2021/10/30 10:31:30;;;;;;;;;;;;;;;;;;5112291;28;19924;-79
2021/10/30 10:34:08;;;;;;;;;;;;;;;;;;5111815;28;19927;-80
2021/10/30 10:36:35;;;;;;;;;;;;;;;;;;5111788;28;19931;-82
2021/10/30 10:39:12;;;;;;;;;;;;;;;;;;5112023;28;19927;-79
2021/10/30 10:41:55;;;;;;;;;;;;;;;;;;5112425;28;19954;-79
2021/10/30 10:44:41;;;;;;;;;;;;;;;;;;5112548;28;19935;-81
2021/10/30 10:47:11;;;;;;;;;;;;;;;;;;5111950;28;20035;-79
2021/10/30 10:49:42;;;;;;;;;;;;;;;;;;5112255;28;19934;-78
2021/10/30 10:52:13;;;;;;;;;;;;;;;;;;5112043;28;20320;-79
2021/10/30 10:55:01;;;;;;;;;;;;;;;;;;5112471;28;19924;-78
2021/10/30 10:57:29;;;;;;;;;;;;;;;;;;5112329;28;19935;-82
2021/10/30 10:59:57;;;;;;;;;;;;;;;;;;5112010;28;20272;-79
2021/10/30 11:02:29;;;;;;;;;;;;;;;;;;5111936;28;19923;-78
2021/10/30 11:05:23;;;;;;;;;;;;;;;;;;5111802;28;19924;-80
2021/10/30 11:08:00;;;;;;;;;;;;;;;;;;5111465;28;19927;-78
2021/10/30 11:10:30;;;;;;;;;;;;;;;;;;5111771;28;19931;-77
2021/10/30 11:13:05;;;;;;;;;;;;;;;;;;5111698;28;19928;-78
2021/10/30 11:15:38;;;;;;;;;;;;;;;;;;5111707;28;19997;-78
2021/10/30 11:18:09;;;;;;;;;;;;;;;;;;5112349;28;19928;-80
2021/10/30 11:20:37;;;;;;;;;;;;;;;;;;5115794;28;19923;-79
2021/10/30 11:23:09;;;;;;;;;;;;;;;;;;5116006;28;20314;-78
2021/10/30 11:25:37;;;;;;;;;;;;;;;;;;5115677;28;19927;-78
2021/10/30 11:28:04;;;;;;;;;;;;;;;;;;5115568;28;19923;-80
2021/10/30 11:30:35;;;;;;;;;;;;;;;;;;5115485;28;19946;-80
2021/10/30 11:33:23;;;;;;;;;;;;;;;;;;5115674;28;20138;-78
2021/10/30 11:35:58;;;;;;;;;;;;;;;;;;5115265;28;19937;-78
2021/10/30 11:38:25;;;;;;;;;;;;;;;;;;5115530;28;20290;-80
2021/10/30 11:40:53;;;;;;;;;;;;;;;;;;5115842;28;19927;-78
2021/10/30 11:43:21;;;;;;;;;;;;;;;;;;5115651;28;19928;-78
2021/10/30 11:45:48;;;;;;;;;;;;;;;;;;5115111;28;20340;-80
2021/10/30 11:48:16;;;;;;;;;;;;;;;;;;5114724;28;19924;-82
2021/10/30 11:50:53;;;;;;;;;;;;;;;;;;5116115;28;20323;-78
2021/10/30 11:53:20;;;;;;;;;;;;;;;;;;5115358;28;20045;-78
2021/10/30 11:55:51;;;;;;;;;;;;;;;;;;5114874;28;19940;-78
2021/10/30 11:58:33;;;;;;;;;;;;;;;;;;5115476;28;19928;-81
2021/10/30 12:01:00;;;;;;;;;;;;;;;;;;5114702;28;20325;-79
2021/10/30 12:03:32;;;;;;;;;;;;;;;;;;5115517;28;19939;-80
2021/10/30 12:06:01;;;;;;;;;;;;;;;;;;5114912;28;19927;-78
2021/10/30 12:08:28;;;;;;;;;;;;;;;;;;5114587;28;19935;-80
2021/10/30 12:10:55;;;;;;;;;;;;;;;;;;5114846;28;19931;-81
2021/10/30 12:13:22;;;;;;;;;;;;;;;;;;5114310;28;20360;-80
2021/10/30 12:15:50;;;;;;;;;;;;;;;;;;5114823;28;19950;-80
2021/10/30 12:18:17;;;;;;;;;;;;;;;;;;5114562;28;20279;-80
2021/10/30 12:20:44;;;;;;;;;;;;;;;;;;5114876;28;19934;-79
2021/10/30 12:23:14;;;;;;;;;;;;;;;;;;5114588;28;19928;-79
2021/10/30 12:25:42;;;;;;;;;;;;;;;;;;5114634;28;19924;-78
2021/10/30 12:28:09;;;;;;;;;;;;;;;;;;5114709;28;19931;-79
2021/10/30 12:30:38;;;;;;;;;;;;;;;;;;5113777;28;19928;-81
2021/10/30 12:33:10;;;;;;;;;;;;;;;;;;5114763;28;19924;-78
2021/10/30 12:35:39;;;;;;;;;;;;;;;;;;5114244;28;19993;-79
2021/10/30 12:38:10;;;;;;;;;;;;;;;;;;5114044;28;20014;-79
2021/10/30 12:40:39;;;;;;;;;;;;;;;;;;5114095;28;19929;-79
2021/10/30 12:43:07;;;;;;;;;;;;;;;;;;5114519;28;20352;-79
2021/10/30 12:45:38;;;;;;;;;;;;;;;;;;5114194;28;20325;-79
2021/10/30 12:48:12;;;;;;;;;;;;;;;;;;5114089;28;20325;-81
2021/10/30 12:50:40;;;;;;;;;;;;;;;;;;5114307;28;19947;-77
2021/10/30 12:53:21;;;;;;;;;;;;;;;;;;5114340;28;19928;-78
2021/10/30 12:56:00;;;;;;;;;;;;;;;;;;5114036;28;19979;-81
2021/10/30 12:58:34;;;;;;;;;;;;;;;;;;5113948;28;19934;-81
2021/10/30 13:01:01;;;;;;;;;;;;;;;;;;5113755;28;19935;-79
2021/10/30 13:03:30;;;;;;;;;;;;;;;;;;5114169;28;19949;-79
2021/10/30 13:05:59;;;;;;;;;;;;;;;;;;5113708;28;19935;-78
2021/10/30 13:08:26;;;;;;;;;;;;;;;;;;5110986;28;20346;-78
2021/10/30 13:10:53;;;;;;;;;;;;;;;;;;5113663;28;20281;-78
2021/10/30 13:13:22;;;;;;;;;;;;;;;;;;5113020;28;19928;-78
2021/10/30 13:15:49;;;;;;;;;;;;;;;;;;5113310;28;19942;-81
2021/10/30 13:18:16;;;;;;;;;;;;;;;;;;5113564;28;19956;-79
2021/10/30 13:20:43;;;;;;;;;;;;;;;;;;5113772;28;19924;-79
2021/10/30 13:23:10;;;;;;;;;;;;;;;;;;5113398;28;19985;-80
2021/10/30 13:25:38;;;;;;;;;;;;;;;;;;5113360;28;20010;-78
2021/10/30 13:28:05;;;;;;;;;;;;;;;;;;5113355;28;20352;-81
2021/10/30 13:30:35;;;;;;;;;;;;;;;;;;5113262;28;20373;-79
2021/10/30 13:33:02;;;;;;;;;;;;;;;;;;5113413;28;20245;-79
2021/10/30 13:35:29;;;;;;;;;;;;;;;;;;5113059;28;19939;-79
2021/10/30 13:37:57;;;;;;;;;;;;;;;;;;5112929;28;19928;-78
2021/10/30 13:40:24;;;;;;;;;;;;;;;;;;5112973;28;19923;-80
2021/10/30 13:42:51;;;;;;;;;;;;;;;;;;5111984;28;20272;-79
2021/10/30 13:45:18;;;;;;;;;;;;;;;;;;5113514;28;19923;-79
2021/10/30 13:47:47;;;;;;;;;;;;;;;;;;5112712;28;19924;-78
2021/10/30 13:50:14;;;;;;;;;;;;;;;;;;5113199;28;20345;-78
2021/10/30 13:52:41;;;;;;;;;;;;;;;;;;5112835;28;19947;-78
2021/10/30 13:55:08;;;;;;;;;;;;;;;;;;5112723;28;19928;-77
2021/10/30 13:57:35;;;;;;;;;;;;;;;;;;5112617;28;19923;-78
2021/10/30 14:00:03;;;;;;;;;;;;;;;;;;5112343;28;19975;-79
2021/10/30 14:02:30;;;;;;;;;;;;;;;;;;5112510;28;19930;-78
2021/10/30 14:04:58;;;;;;;;;;;;;;;;;;5112506;28;19935;-81
2021/10/30 14:07:26;;;;;;;;;;;;;;;;;;5112016;28;19924;-79
2021/10/30 14:09:53;;;;;;;;;;;;;;;;;;5112570;28;19927;-78
2021/10/30 14:12:20;;;;;;;;;;;;;;;;;;5112126;28;19924;-80
2021/10/30 14:14:47;;;;;;;;;;;;;;;;;;5112489;28;19963;-79
2021/10/30 14:17:14;;;;;;;;;;;;;;;;;;5112393;28;19924;-79
2021/10/30 14:19:41;;;;;;;;;;;;;;;;;;5112266;28;19924;-79
2021/10/30 14:22:10;;;;;;;;;;;;;;;;;;5111899;28;19924;-79
2021/10/30 14:24:37;;;;;;;;;;;;;;;;;;5112167;28;19928;-81
2021/10/30 14:27:04;;;;;;;;;;;;;;;;;;5112067;28;19924;-79
2021/10/30 14:29:31;;;;;;;;;;;;;;;;;;5112302;28;20362;-81
2021/10/30 14:32:00;;;;;;;;;;;;;;;;;;5112438;28;19935;-80
2021/10/30 14:34:28;;;;;;;;;;;;;;;;;;5112208;28;20018;-79
2021/10/30 14:36:55;;;;;;;;;;;;;;;;;;5111701;28;19927;-80
2021/10/30 14:39:23;;;;;;;;;;;;;;;;;;5112241;28;19947;-78
2021/10/30 14:41:50;;;;;;;;;;;;;;;;;;5111994;28;19923;-81
2021/10/30 14:44:18;;;;;;;;;;;;;;;;;;5111967;28;20348;-79
2021/10/30 14:46:45;;;;;;;;;;;;;;;;;;5111908;28;19924;-79
2021/10/30 14:49:12;;;;;;;;;;;;;;;;;;5111252;28;20341;-80
2021/10/30 14:51:39;;;;;;;;;;;;;;;;;;5111781;28;19951;-78
2021/10/30 14:54:07;;;;;;;;;;;;;;;;;;5111194;28;20345;-80
2021/10/30 14:56:35;;;;;;;;;;;;;;;;;;5112081;28;19923;-81
2021/10/30 14:59:02;;;;;;;;;;;;;;;;;;5112123;28;19939;-78
2021/10/30 15:01:29;;;;;;;;;;;;;;;;;;5111859;28;19927;-81
2021/10/30 15:03:59;;;;;;;;;;;;;;;;;;5111016;28;21495;-80
2021/10/30 15:06:26;;;;;;;;;;;;;;;;;;5112016;28;19923;-81
2021/10/30 15:08:53;;;;;;;;;;;;;;;;;;5112048;28;19923;-79
2021/10/30 15:11:20;;;;;;;;;;;;;;;;;;5112014;28;20101;-79
2021/10/30 15:13:49;;;;;;;;;;;;;;;;;;5111660;28;20327;-78
2021/10/30 15:16:16;;;;;;;;;;;;;;;;;;5112037;28;19934;-82
2021/10/30 15:18:43;;;;;;;;;;;;;;;;;;5111367;28;19949;-79
2021/10/30 15:21:11;;;;;;;;;;;;;;;;;;5111320;28;19950;-78
2021/10/30 15:23:38;;;;;;;;;;;;;;;;;;5111950;28;19927;-80
2021/10/30 15:26:09;;;;;;;;;;;;;;;;;;5111642;28;19934;-80
2021/10/30 15:28:38;;;;;;;;;;;;;;;;;;5111723;28;20014;-79
2021/10/30 15:31:07;;;;;;;;;;;;;;;;;;5111752;28;19928;-79
2021/10/30 15:33:34;;;;;;;;;;;;;;;;;;5111735;28;19985;-79
2021/10/30 15:36:02;;;;;;;;;;;;;;;;;;5111331;28;20360;-79
2021/10/30 15:38:29;;;;;;;;;;;;;;;;;;5111235;28;20011;-80
2021/10/30 15:40:56;;;;;;;;;;;;;;;;;;5111827;28;19926;-81
2021/10/30 15:43:23;;;;;;;;;;;;;;;;;;5111495;28;20567;-80
2021/10/30 15:45:51;;;;;;;;;;;;;;;;;;5111101;28;19943;-80
2021/10/30 15:48:19;;;;;;;;;;;;;;;;;;5110826;28;19935;-79
2021/10/30 15:50:47;;;;;;;;;;;;;;;;;;5111430;28;19924;-80
2021/10/30 15:53:15;;;;;;;;;;;;;;;;;;5111515;28;20340;-78
2021/10/30 15:55:42;;;;;;;;;;;;;;;;;;5111368;28;19949;-78
2021/10/30 15:58:09;;;;;;;;;;;;;;;;;;5111520;28;19934;-81
2021/10/30 16:00:36;;;;;;;;;;;;;;;;;;5111132;28;19987;-79
2021/10/30 16:03:04;;;;;;;;;;;;;;;;;;5110995;28;19923;-79
2021/10/30 16:05:32;;;;;;;;;;;;;;;;;;5112781;28;20364;-78
2021/10/30 16:08:00;;;;;;;;;;;;;;;;;;5115094;28;19931;-79
2021/10/30 16:10:27;;;;;;;;;;;;;;;;;;5114969;28;20391;-78
2021/10/30 16:12:55;;;;;;;;;;;;;;;;;;5114510;28;19924;-79
2021/10/30 16:15:22;;;;;;;;;;;;;;;;;;5114840;28;19924;-79
2021/10/30 16:17:49;;;;;;;;;;;;;;;;;;5115033;28;19927;-78
2021/10/30 16:20:16;;;;;;;;;;;;;;;;;;5115153;28;19923;-81
2021/10/30 16:22:45;;;;;;;;;;;;;;;;;;5115059;28;19923;-79
2021/10/30 16:25:12;;;;;;;;;;;;;;;;;;5114759;28;19923;-83
2021/10/30 16:27:39;;;;;;;;;;;;;;;;;;5114658;28;19927;-78
2021/10/30 16:30:08;;;;;;;;;;;;;;;;;;5114556;28;19928;-80
2021/10/30 16:32:35;;;;;;;;;;;;;;;;;;5114615;28;19924;-79
2021/10/30 16:35:02;;;;;;;;;;;;;;;;;;5114684;28;20403;-80
2021/10/30 16:37:29;;;;;;;;;;;;;;;;;;5114131;28;19939;-79
2021/10/30 16:39:58;;;;;;;;;;;;;;;;;;5114352;28;19930;-78
2021/10/30 16:42:25;;;;;;;;;;;;;;;;;;5114395;28;20264;-79
2021/10/30 16:44:52;;;;;;;;;;;;;;;;;;5114166;28;19931;-79
2021/10/30 16:47:19;;;;;;;;;;;;;;;;;;5114693;28;20257;-79
2021/10/30 16:49:46;;;;;;;;;;;;;;;;;;5114030;28;19927;-78
2021/10/30 16:52:13;;;;;;;;;;;;;;;;;;5114158;28;19928;-78
2021/10/30 16:54:41;;;;;;;;;;;;;;;;;;5114354;28;20360;-81